createdAt,value
2023-02-25T00:02:04.308Z,4.24
2023-02-25T00:04:06.339Z,4.22
2023-02-25T00:06:10.343Z,4.19
2023-02-25T00:08:11.792Z,4.17
2023-02-25T00:10:14.715Z,4.15
2023-02-25T00:12:16.255Z,4.10
2023-02-25T00:14:17.716Z,4.06
2023-02-25T00:16:20.983Z,4.06
2023-02-25T00:18:22.678Z,4.04
2023-02-25T00:20:24.133Z,3.98
2023-02-25T00:22:25.670Z,3.92
2023-02-25T00:24:27.170Z,3.88
2023-02-25T00:26:28.624Z,3.84
2023-02-25T00:28:30.124Z,3.82
2023-02-25T00:30:32.980Z,3.78
2023-02-25T00:32:34.476Z,3.74
2023-02-25T00:34:36.148Z,3.74
2023-02-25T00:36:37.959Z,3.73
2023-02-25T00:38:39.713Z,3.73
2023-02-25T00:40:41.247Z,3.77
2023-02-25T00:42:43.103Z,3.77
2023-02-25T00:44:50.415Z,3.76
2023-02-25T00:46:51.893Z,3.74
2023-02-25T00:48:53.719Z,3.72
2023-02-25T00:50:55.198Z,3.72
2023-02-25T00:52:56.661Z,3.70
2023-02-25T00:54:58.127Z,3.70
2023-02-25T00:56:59.593Z,3.71
2023-02-25T00:59:01.150Z,3.71
2023-02-25T01:01:03.137Z,3.71
2023-02-25T01:03:04.605Z,3.69
2023-02-25T01:05:06.196Z,3.71
2023-02-25T01:07:07.898Z,3.68
2023-02-25T01:09:13.873Z,3.68
2023-02-25T01:11:21.033Z,3.70
2023-02-25T01:13:22.586Z,3.67
2023-02-25T01:15:24.054Z,3.69
2023-02-25T01:17:25.568Z,3.71
2023-02-25T01:19:27.586Z,3.74
2023-02-25T01:21:40.325Z,3.75
2023-02-25T01:23:41.787Z,3.74
2023-02-25T01:25:43.226Z,3.76
2023-02-25T01:27:44.726Z,3.77
2023-02-25T01:29:46.190Z,3.77
2023-02-25T01:31:51.758Z,3.78
2023-02-25T01:33:53.632Z,3.79
2023-02-25T01:35:55.148Z,3.77
2023-02-25T01:37:56.610Z,3.77
2023-02-25T01:39:58.163Z,3.76
2023-02-25T01:42:03.437Z,3.77
2023-02-25T01:44:14.908Z,3.78
2023-02-25T01:46:16.413Z,3.78
2023-02-25T01:48:20.629Z,3.77
2023-02-25T01:50:25.445Z,3.76
2023-02-25T01:52:26.894Z,3.76
2023-02-25T01:54:28.885Z,3.76
2023-02-25T01:56:31.087Z,3.78
2023-02-25T01:58:34.396Z,3.78
2023-02-25T02:00:37.942Z,3.78
2023-02-25T02:02:39.944Z,3.76
2023-02-25T02:04:43.569Z,3.73
2023-02-25T02:06:47.869Z,3.71
2023-02-25T02:09:15.698Z,3.68
2023-02-25T02:11:17.724Z,3.64
2023-02-25T02:13:20.151Z,3.62
2023-02-25T02:15:21.720Z,3.61
2023-02-25T02:17:32.377Z,3.59
2023-02-25T02:19:52.106Z,3.60
2023-02-25T02:22:17.646Z,3.59
2023-02-25T02:24:39.939Z,3.60
2023-02-25T02:26:52.077Z,3.58
2023-02-25T02:29:30.719Z,3.59
2023-02-25T02:31:45.397Z,3.54
2023-02-25T02:33:59.470Z,3.54
2023-02-25T02:36:29.372Z,3.50
2023-02-25T02:38:42.753Z,3.49
2023-02-25T02:41:01.197Z,3.49
2023-02-25T02:43:33.475Z,3.47
2023-02-25T02:45:49.308Z,3.45
2023-02-25T02:48:03.889Z,3.45
2023-02-25T02:50:12.698Z,3.45
2023-02-25T02:52:16.940Z,3.44
2023-02-25T02:54:19.211Z,3.42
2023-02-25T02:56:24.329Z,3.42
2023-02-25T02:58:30.319Z,3.45
2023-02-25T03:00:37.968Z,3.45
2023-02-25T03:02:43.193Z,3.49
2023-02-25T03:04:48.679Z,3.54
2023-02-25T03:06:55.526Z,3.57
2023-02-25T03:09:04.062Z,3.57
2023-02-25T03:11:05.897Z,3.57
2023-02-25T03:13:07.568Z,3.60
2023-02-25T03:15:09.442Z,3.62
2023-02-25T03:17:15.366Z,3.67
2023-02-25T03:19:29.912Z,3.72
2023-02-25T03:21:38.791Z,3.75
2023-02-25T03:23:41.824Z,3.76
2023-02-25T03:25:50.432Z,3.77
2023-02-25T03:27:55.412Z,3.77
2023-02-25T03:30:12.580Z,3.82
2023-02-25T03:32:17.358Z,3.79
2023-02-25T03:34:23.526Z,3.83
2023-02-25T03:36:31.333Z,3.84
2023-02-25T03:38:37.616Z,3.83
2023-02-25T03:40:41.673Z,3.86
2023-02-25T03:42:58.819Z,3.85
2023-02-25T03:45:06.027Z,3.86
2023-02-25T03:47:10.855Z,3.84
2023-02-25T03:49:19.132Z,3.83
2023-02-25T03:51:27.127Z,3.85
2023-02-25T03:53:30.126Z,3.83
2023-02-25T03:55:31.853Z,3.81
2023-02-25T03:57:37.859Z,3.81
2023-02-25T03:59:39.320Z,3.79
2023-02-25T04:01:42.749Z,3.81
2023-02-25T04:03:44.684Z,3.79
2023-02-25T04:05:46.162Z,3.74
2023-02-25T04:07:47.963Z,3.71
2023-02-25T04:09:49.418Z,3.72
2023-02-25T04:11:50.885Z,3.71
2023-02-25T04:13:52.563Z,3.68
2023-02-25T04:15:54.110Z,3.64
2023-02-25T04:17:55.628Z,3.66
2023-02-25T04:19:57.245Z,3.64
2023-02-25T04:22:00.464Z,3.62
2023-02-25T04:24:03.306Z,3.59
2023-02-25T04:26:04.936Z,3.57
2023-02-25T04:28:07.608Z,3.49
2023-02-25T04:30:09.797Z,3.46
2023-02-25T04:32:12.128Z,3.46
2023-02-25T04:34:13.739Z,3.39
2023-02-25T04:36:30.312Z,3.35
2023-02-25T04:38:31.780Z,3.35
2023-02-25T04:40:33.400Z,3.36
2023-02-25T04:42:34.874Z,3.29
2023-02-25T04:44:36.453Z,3.30
2023-02-25T04:46:41.348Z,3.22
2023-02-25T04:48:42.819Z,3.25
2023-02-25T04:50:44.294Z,3.21
2023-02-25T04:52:45.969Z,3.23
2023-02-25T04:54:47.476Z,3.23
2023-02-25T04:56:49.416Z,3.22
2023-02-25T04:58:51.197Z,3.21
2023-02-25T05:00:53.314Z,3.22
2023-02-25T05:02:54.793Z,3.20
2023-02-25T05:04:56.290Z,3.19
2023-02-25T05:06:57.817Z,3.17
2023-02-25T05:08:59.396Z,3.17
2023-02-25T05:11:01.755Z,3.13
2023-02-25T05:13:03.253Z,3.09
2023-02-25T05:15:05.564Z,3.04
2023-02-25T05:17:07.095Z,3.04
2023-02-25T05:19:08.578Z,3.04
2023-02-25T05:21:14.460Z,3.03
2023-02-25T05:23:15.906Z,3.05
2023-02-25T05:25:17.506Z,3.04
2023-02-25T05:27:19.353Z,3.05
2023-02-25T05:29:20.907Z,3.05
2023-02-25T05:31:24.715Z,3.03
2023-02-25T05:33:27.201Z,2.99
2023-02-25T05:35:28.752Z,2.98
2023-02-25T05:37:31.748Z,2.98
2023-02-25T05:39:33.311Z,3.00
2023-02-25T05:41:34.821Z,3.00
2023-02-25T05:43:37.628Z,2.98
2023-02-25T05:45:39.212Z,2.97
2023-02-25T05:47:40.741Z,2.98
2023-02-25T05:49:42.830Z,2.99
2023-02-25T05:51:44.336Z,2.99
2023-02-25T05:53:48.022Z,2.96
2023-02-25T05:55:50.281Z,2.96
2023-02-25T05:57:51.729Z,2.96
2023-02-25T05:59:53.232Z,2.92
2023-02-25T06:01:54.761Z,2.91
2023-02-25T06:03:58.528Z,2.91
2023-02-25T06:06:00.915Z,2.90
2023-02-25T06:08:02.424Z,2.88
2023-02-25T06:10:04.124Z,2.85
2023-02-25T06:12:05.955Z,2.83
2023-02-25T06:14:07.466Z,2.80
2023-02-25T06:16:09.010Z,2.81
2023-02-25T06:18:10.522Z,2.79
2023-02-25T06:20:12.548Z,2.81
2023-02-25T06:22:14.259Z,2.80
2023-02-25T06:24:16.317Z,2.87
2023-02-25T06:26:18.713Z,2.92
2023-02-25T06:28:20.217Z,2.96
2023-02-25T06:30:21.704Z,2.97
2023-02-25T06:32:23.294Z,2.92
2023-02-25T06:34:25.548Z,2.89
2023-02-25T06:36:27.330Z,2.84
2023-02-25T06:38:28.867Z,2.76
2023-02-25T06:40:30.392Z,2.72
2023-02-25T06:42:31.868Z,2.68
2023-02-25T06:44:33.317Z,2.69
2023-02-25T06:46:34.867Z,2.68
2023-02-25T06:48:36.538Z,2.68
2023-02-25T06:50:41.559Z,2.70
2023-02-25T06:52:43.359Z,2.72
2023-02-25T06:54:45.036Z,2.74
2023-02-25T06:56:46.595Z,2.75
2023-02-25T06:58:48.415Z,2.76
2023-02-25T07:00:49.935Z,2.74
2023-02-25T07:02:51.468Z,2.68
2023-02-25T07:04:54.693Z,2.74
2023-02-25T07:06:56.299Z,2.71
2023-02-25T07:08:57.759Z,2.71
2023-02-25T07:11:18.518Z,2.79
2023-02-25T07:13:20.039Z,2.81
2023-02-25T07:15:21.791Z,2.83
2023-02-25T07:17:23.267Z,2.81
2023-02-25T07:19:24.732Z,2.77
2023-02-25T07:21:29.325Z,2.81
2023-02-25T07:23:30.820Z,2.77
2023-02-25T07:25:32.617Z,2.70
2023-02-25T07:27:34.164Z,2.64
2023-02-25T07:29:35.650Z,2.62
2023-02-25T07:31:37.262Z,2.60
2023-02-25T07:33:39.028Z,2.61
2023-02-25T07:35:40.505Z,2.60
2023-02-25T07:37:41.982Z,2.59
2023-02-25T07:39:43.480Z,2.58
2023-02-25T07:41:44.990Z,2.58
2023-02-25T07:43:46.473Z,2.61
2023-02-25T07:45:50.349Z,2.60
2023-02-25T07:47:54.932Z,2.58
2023-02-25T07:49:56.462Z,2.55
2023-02-25T07:51:57.968Z,2.56
2023-02-25T07:54:00.575Z,2.59
2023-02-25T07:56:02.170Z,2.63
2023-02-25T07:58:05.329Z,2.68
2023-02-25T08:00:10.362Z,2.72
2023-02-25T08:02:12.678Z,2.72
2023-02-25T08:04:14.212Z,2.74
2023-02-25T08:06:15.714Z,2.74
2023-02-25T08:08:17.355Z,2.75
2023-02-25T08:10:18.989Z,2.76
2023-02-25T08:12:20.501Z,2.79
2023-02-25T08:14:22.074Z,2.82
2023-02-25T08:16:23.746Z,2.83
2023-02-25T08:18:25.247Z,2.81
2023-02-25T08:20:27.084Z,2.81
2023-02-25T08:22:28.595Z,2.78
2023-02-25T08:24:30.276Z,2.79
2023-02-25T08:26:31.741Z,2.77
2023-02-25T08:28:36.961Z,2.73
2023-02-25T08:30:38.685Z,2.72
2023-02-25T08:32:41.948Z,2.75
2023-02-25T08:34:44.023Z,2.77
2023-02-25T08:36:45.759Z,2.79
2023-02-25T08:38:47.287Z,2.82
2023-02-25T08:40:48.805Z,2.82
2023-02-25T08:42:50.324Z,2.87
2023-02-25T08:44:51.779Z,2.88
2023-02-25T08:46:53.336Z,2.90
2023-02-25T08:48:55.414Z,2.95
2023-02-25T08:50:56.905Z,3.04
2023-02-25T08:52:58.410Z,3.07
2023-02-25T08:55:02.014Z,3.11
2023-02-25T08:57:03.630Z,3.10
2023-02-25T08:59:06.077Z,3.10
2023-02-25T09:01:12.990Z,3.08
2023-02-25T09:03:14.613Z,3.09
2023-02-25T09:05:16.186Z,3.12
2023-02-25T09:07:17.737Z,3.10
2023-02-25T09:09:20.431Z,3.10
2023-02-25T09:11:22.789Z,3.10
2023-02-25T09:13:24.599Z,3.09
2023-02-25T09:15:26.124Z,3.12
2023-02-25T09:17:27.611Z,3.13
2023-02-25T09:19:29.108Z,3.11
2023-02-25T09:21:30.669Z,3.19
2023-02-25T09:23:32.214Z,3.25
2023-02-25T09:25:33.716Z,3.27
2023-02-25T09:27:35.232Z,3.30
2023-02-25T09:29:39.063Z,3.36
2023-02-25T09:31:40.758Z,3.40
2023-02-25T09:33:43.130Z,3.46
2023-02-25T09:35:45.246Z,3.53
2023-02-25T09:37:46.737Z,3.57
2023-02-25T09:39:48.254Z,3.57
2023-02-25T09:42:13.841Z,3.50
2023-02-25T09:44:26.997Z,3.42
2023-02-25T09:46:30.423Z,3.37
2023-02-25T09:48:35.709Z,3.37
2023-02-25T09:50:42.577Z,3.46
2023-02-25T09:53:20.645Z,3.66
2023-02-25T09:55:30.875Z,3.76
2023-02-25T09:57:37.754Z,3.76
2023-02-25T09:59:39.344Z,3.73
2023-02-25T10:01:56.954Z,3.67
2023-02-25T10:04:08.419Z,3.55
2023-02-25T10:06:14.362Z,3.46
2023-02-25T10:08:39.003Z,3.38
2023-02-25T10:11:30.462Z,3.22
2023-02-25T10:13:47.025Z,3.11
2023-02-25T10:15:54.748Z,3.12
2023-02-25T10:18:26.956Z,3.13
2023-02-25T10:20:43.662Z,3.17
2023-02-25T10:23:19.538Z,3.31
2023-02-25T10:25:26.793Z,3.41
2023-02-25T10:29:40.076Z,3.47
2023-02-25T10:31:46.707Z,3.53
2023-02-25T10:33:51.022Z,3.56
2023-02-25T10:36:11.705Z,3.59
2023-02-25T10:38:13.172Z,3.66
2023-02-25T10:40:17.997Z,3.71
2023-02-25T10:42:19.561Z,3.80
2023-02-25T10:44:21.488Z,3.93
2023-02-25T10:46:33.480Z,4.01
2023-02-25T10:48:35.602Z,4.03
2023-02-25T10:50:45.345Z,4.09
2023-02-25T10:53:11.675Z,4.04
2023-02-25T10:55:26.016Z,4.08
2023-02-25T10:57:35.108Z,4.20
2023-02-25T10:59:39.496Z,4.23
2023-02-25T11:01:42.477Z,4.20
2023-02-25T11:04:06.537Z,4.13
2023-02-25T11:06:13.844Z,4.08
2023-02-25T11:08:31.687Z,4.18
2023-02-25T11:10:34.326Z,4.37
2023-02-25T11:12:43.658Z,4.38
2023-02-25T11:14:45.274Z,4.41
2023-02-25T11:16:46.856Z,4.54
2023-02-25T11:18:54.473Z,4.81
2023-02-25T11:21:08.951Z,5.43
2023-02-25T11:23:21.117Z,5.52
2023-02-25T11:25:43.702Z,5.14
2023-02-25T11:27:54.108Z,5.08
2023-02-25T11:30:02.532Z,5.04
2023-02-25T11:32:14.828Z,4.97
2023-02-25T11:34:22.642Z,5.27
2023-02-25T11:36:29.645Z,5.43
2023-02-25T11:38:41.280Z,6.08
2023-02-25T11:40:44.913Z,6.57
2023-02-25T11:43:17.077Z,6.36
2023-02-25T11:45:18.637Z,5.87
2023-02-25T11:47:28.296Z,5.57
2023-02-25T11:49:42.593Z,5.61
2023-02-25T11:52:22.780Z,6.14
2023-02-25T11:54:39.626Z,6.60
2023-02-25T11:56:48.641Z,6.97
2023-02-25T11:59:02.385Z,7.38
2023-02-25T12:01:19.342Z,7.21
2023-02-25T12:03:39.823Z,7.47
2023-02-25T12:05:46.089Z,7.86
2023-02-25T12:08:14.088Z,8.38
2023-02-25T12:10:21.724Z,8.47
2023-02-25T12:12:54.279Z,7.73
2023-02-25T12:15:11.102Z,7.78
2023-02-25T12:17:34.483Z,8.15
2023-02-25T12:19:51.191Z,8.56
2023-02-25T12:22:13.032Z,8.69
2023-02-25T12:24:26.397Z,9.15
2023-02-25T12:26:40.557Z,9.56
2023-02-25T12:28:57.838Z,9.51
2023-02-25T12:31:36.959Z,9.59
2023-02-25T12:33:57.257Z,9.63
2023-02-25T12:36:08.173Z,9.36
2023-02-25T12:38:39.045Z,8.77
2023-02-25T12:41:02.406Z,8.42
2023-02-25T12:43:18.909Z,8.62
2023-02-25T12:45:36.732Z,8.65
2023-02-25T12:47:57.705Z,8.70
2023-02-25T12:50:20.719Z,8.73
2023-02-25T12:52:39.497Z,8.78
2023-02-25T12:54:43.638Z,8.71
2023-02-25T12:57:27.243Z,8.74
2023-02-25T12:59:37.320Z,8.82
2023-02-25T13:02:15.844Z,8.85
2023-02-25T13:04:31.513Z,8.78
2023-02-25T13:06:35.617Z,8.76
2023-02-25T13:08:42.978Z,8.90
2023-02-25T13:10:47.603Z,9.05
2023-02-25T13:13:04.447Z,8.92
2023-02-25T13:15:30.615Z,8.73
2023-02-25T13:18:05.827Z,8.47
2023-02-25T13:20:32.177Z,8.34
2023-02-25T13:22:51.769Z,8.33
2023-02-25T13:24:59.578Z,8.46
2023-02-25T13:27:19.828Z,8.47
2023-02-25T13:30:02.930Z,8.06
2023-02-25T13:32:10.521Z,7.53
2023-02-25T13:34:27.157Z,7.62
2023-02-25T13:36:49.941Z,7.86
2023-02-25T13:39:19.650Z,8.10
2023-02-25T13:42:15.746Z,8.45
2023-02-25T13:44:35.851Z,8.64
2023-02-25T13:46:50.978Z,8.67
2023-02-25T13:49:15.881Z,8.53
2023-02-25T13:51:44.090Z,8.44
2023-02-25T13:53:52.282Z,8.28
2023-02-25T13:56:15.033Z,8.03
2023-02-25T13:58:34.486Z,7.90
2023-02-25T14:00:54.161Z,7.64
2023-02-25T14:03:49.521Z,7.64
2023-02-25T14:06:03.363Z,7.56
2023-02-25T14:08:16.429Z,7.30
2023-02-25T14:10:44.880Z,7.06
2023-02-25T14:13:31.108Z,7.09
2023-02-25T14:15:56.893Z,7.07
2023-02-25T14:18:20.208Z,7.03
2023-02-25T14:20:56.570Z,6.82
2023-02-25T14:23:08.973Z,6.57
2023-02-25T14:25:22.197Z,6.53
2023-02-25T14:27:53.723Z,6.54
2023-02-25T14:30:30.231Z,6.64
2023-02-25T14:32:31.725Z,6.67
2023-02-25T14:35:10.264Z,6.74
2023-02-25T14:37:30.730Z,6.73
2023-02-25T14:40:00.700Z,6.70
2023-02-25T14:42:28.788Z,6.65
2023-02-25T14:44:50.512Z,6.64
2023-02-25T14:46:59.653Z,6.62
2023-02-25T14:49:15.980Z,6.58
2023-02-25T14:51:23.677Z,6.46
2023-02-25T14:53:42.130Z,6.24
2023-02-25T14:55:52.829Z,6.08
2023-02-25T14:58:35.919Z,6.02
2023-02-25T15:00:37.802Z,5.98
2023-02-25T15:02:58.370Z,5.90
2023-02-25T15:05:31.744Z,5.94
2023-02-25T15:08:03.887Z,6.09
2023-02-25T15:10:17.904Z,6.11
2023-02-25T15:12:37.864Z,6.01
2023-02-25T15:15:02.343Z,5.95
2023-02-25T15:17:06.456Z,6.09
2023-02-25T15:19:37.921Z,6.23
2023-02-25T15:21:48.399Z,6.33
2023-02-25T15:23:51.347Z,6.30
2023-02-25T15:26:25.089Z,6.27
2023-02-25T15:28:29.312Z,6.26
2023-02-25T15:30:58.854Z,6.30
2023-02-25T15:33:00.357Z,6.30
2023-02-25T15:35:04.831Z,6.27
2023-02-25T15:37:23.532Z,6.19
2023-02-25T15:39:47.245Z,6.09
2023-02-25T15:42:02.260Z,6.01
2023-02-25T15:44:12.747Z,5.99
2023-02-25T15:46:35.006Z,5.86
2023-02-25T15:48:39.022Z,5.71
2023-02-25T15:50:43.382Z,5.59
2023-02-25T15:52:54.012Z,5.44
2023-02-25T15:55:18.900Z,5.34
2023-02-25T15:57:23.046Z,5.23
2023-02-25T15:59:43.423Z,4.95
2023-02-25T16:01:46.117Z,4.99
2023-02-25T16:03:48.210Z,4.94
2023-02-25T16:05:49.855Z,4.90
2023-02-25T16:08:04.919Z,4.83
2023-02-25T16:10:21.749Z,4.70
2023-02-25T16:12:24.483Z,4.68
2023-02-25T16:14:31.558Z,4.56
2023-02-25T16:16:35.548Z,4.54
2023-02-25T16:18:50.143Z,4.40
2023-02-25T16:20:59.010Z,4.47
2023-02-25T16:23:00.850Z,4.47
2023-02-25T16:25:05.255Z,4.43
2023-02-25T16:27:32.921Z,4.41
2023-02-25T16:30:02.560Z,4.39
2023-02-25T16:32:36.603Z,4.29
2023-02-25T16:35:25.909Z,4.14
2023-02-25T16:37:39.245Z,4.03
2023-02-25T16:39:40.843Z,4.00
2023-02-25T16:41:42.777Z,4.03
2023-02-25T16:43:45.814Z,4.01
2023-02-25T16:45:59.945Z,4.02
2023-02-25T16:48:07.595Z,3.97
2023-02-25T16:50:15.919Z,3.92
2023-02-25T16:52:23.773Z,3.85
2023-02-25T16:54:31.259Z,3.84
2023-02-25T16:56:33.458Z,3.79
2023-02-25T16:58:34.956Z,3.69
2023-02-25T17:00:36.622Z,3.67
2023-02-25T17:02:47.226Z,3.64
2023-02-25T17:04:51.619Z,3.61
2023-02-25T17:07:13.836Z,3.56
2023-02-25T17:09:26.332Z,3.53
2023-02-25T17:11:28.055Z,3.53
2023-02-25T17:13:35.453Z,3.53
2023-02-25T17:15:37.874Z,3.51
2023-02-25T17:17:42.645Z,3.50
2023-02-25T17:19:44.207Z,3.47
2023-02-25T17:21:53.542Z,3.37
2023-02-25T17:23:56.713Z,3.11
2023-02-25T17:25:59.472Z,2.80
2023-02-25T17:28:01.262Z,2.60
2023-02-25T17:30:03.412Z,2.46
2023-02-25T17:32:23.525Z,2.31
2023-02-25T17:34:35.459Z,2.15
2023-02-25T17:36:39.745Z,2.13
2023-02-25T17:38:44.159Z,2.03
2023-02-25T17:40:46.545Z,1.86
2023-02-25T17:42:48.450Z,1.81
2023-02-25T17:44:49.969Z,1.80
2023-02-25T17:46:53.906Z,1.68
2023-02-25T17:49:02.546Z,1.62
2023-02-25T17:51:07.783Z,1.66
2023-02-25T17:53:34.832Z,1.65
2023-02-25T17:55:36.417Z,1.66
2023-02-25T17:57:42.262Z,1.71
2023-02-25T17:59:56.796Z,1.73
2023-02-25T18:02:00.848Z,1.87
2023-02-25T18:04:06.164Z,1.95
2023-02-25T18:06:39.264Z,1.94
2023-02-25T18:08:54.558Z,1.91
2023-02-25T18:11:01.900Z,1.82
2023-02-25T18:13:04.972Z,1.80
2023-02-25T18:15:16.763Z,1.75
2023-02-25T18:17:33.589Z,1.68
2023-02-25T18:19:45.993Z,1.65
2023-02-25T18:21:47.754Z,1.61
2023-02-25T18:23:53.398Z,1.52
2023-02-25T18:26:33.666Z,1.47
2023-02-25T18:28:35.193Z,1.50
2023-02-25T18:30:36.759Z,1.48
2023-02-25T18:32:39.337Z,1.47
2023-02-25T18:34:40.846Z,1.44
2023-02-25T18:36:44.217Z,1.43
2023-02-25T18:38:45.721Z,1.41
2023-02-25T18:40:48.801Z,1.33
2023-02-25T18:42:50.309Z,1.27
2023-02-25T18:44:52.129Z,1.23
2023-02-25T18:46:53.571Z,1.18
2023-02-25T18:48:55.011Z,1.14
2023-02-25T18:50:58.491Z,1.06
2023-02-25T18:53:01.022Z,1.02
2023-02-25T18:55:02.495Z,0.97
2023-02-25T18:57:04.224Z,0.90
2023-02-25T18:59:05.851Z,0.79
2023-02-25T19:01:08.379Z,0.73
2023-02-25T19:03:15.773Z,0.64
2023-02-25T19:05:19.432Z,0.56
2023-02-25T19:07:23.818Z,0.51
2023-02-25T19:09:25.304Z,0.45
2023-02-25T19:11:33.262Z,0.43
2023-02-25T19:13:40.506Z,0.43
2023-02-25T19:15:42.141Z,0.35
2023-02-25T19:17:43.637Z,0.36
2023-02-25T19:19:46.404Z,0.32
2023-02-25T19:21:47.933Z,0.31
2023-02-25T19:23:51.723Z,0.26
2023-02-25T19:25:59.911Z,0.30
2023-02-25T19:28:02.043Z,0.26
2023-02-25T19:30:03.818Z,0.26
2023-02-25T19:32:05.378Z,0.20
2023-02-25T19:34:06.901Z,0.09
2023-02-25T19:36:08.772Z,0.02
2023-02-25T19:38:19.975Z,-0.04
2023-02-25T19:40:21.960Z,-0.04
2023-02-25T19:42:23.550Z,-0.09
2023-02-25T19:44:25.018Z,-0.04
2023-02-25T19:46:26.905Z,-0.01
2023-02-25T19:48:28.696Z,-0.04
2023-02-25T19:50:34.641Z,-0.01
2023-02-25T19:52:36.392Z,0.02
2023-02-25T19:54:37.953Z,0.01
2023-02-25T19:56:39.430Z,-0.06
2023-02-25T19:58:40.903Z,-0.03
2023-02-25T20:00:45.976Z,0.03
2023-02-25T20:02:47.614Z,0.03
2023-02-25T20:04:49.331Z,0.03
2023-02-25T20:06:50.869Z,0.01
2023-02-25T20:08:52.574Z,0.01
2023-02-25T20:10:54.038Z,-0.02
2023-02-25T20:12:55.842Z,-0.01
2023-02-25T20:14:57.305Z,-0.01
2023-02-25T20:17:00.850Z,0.03
2023-02-25T20:19:02.460Z,0.06
2023-02-25T20:21:04.836Z,0.12
2023-02-25T20:23:06.907Z,0.19
2023-02-25T20:25:10.072Z,0.22
2023-02-25T20:27:11.534Z,0.28
2023-02-25T20:29:13.077Z,0.31
2023-02-25T20:31:17.510Z,0.31
2023-02-25T20:33:19.055Z,0.35
2023-02-25T20:35:21.756Z,0.38
2023-02-25T20:37:31.284Z,0.40
2023-02-25T20:39:38.874Z,0.42
2023-02-25T20:41:42.123Z,0.45
2023-02-25T20:43:43.691Z,0.45
2023-02-25T20:45:45.418Z,0.43
2023-02-25T20:47:47.112Z,0.44
2023-02-25T20:49:49.343Z,0.42
2023-02-25T20:51:51.444Z,0.45
2023-02-25T20:53:53.322Z,0.44
2023-02-25T20:55:56.823Z,0.43
2023-02-25T20:57:58.355Z,0.44
2023-02-25T21:00:01.086Z,0.44
2023-02-25T21:02:02.588Z,0.45
2023-02-25T21:04:04.074Z,0.44
2023-02-25T21:06:06.056Z,0.44
2023-02-25T21:08:07.559Z,0.44
2023-02-25T21:10:10.393Z,0.44
2023-02-25T21:12:11.981Z,0.43
2023-02-25T21:14:13.463Z,0.42
2023-02-25T21:16:16.593Z,0.41
2023-02-25T21:18:18.149Z,0.41
2023-02-25T21:20:19.645Z,0.39
2023-02-25T21:22:21.805Z,0.37
2023-02-25T21:24:23.719Z,0.35
2023-02-25T21:26:25.323Z,0.31
2023-02-25T21:28:27.740Z,0.31
2023-02-25T21:30:29.272Z,0.28
2023-02-25T21:32:30.902Z,0.26
2023-02-25T21:34:32.372Z,0.24
2023-02-25T21:36:34.437Z,0.23
2023-02-25T21:38:37.057Z,0.22
2023-02-25T21:40:38.577Z,0.21
2023-02-25T21:42:40.078Z,0.18
2023-02-25T21:44:41.763Z,0.19
2023-02-25T21:46:43.233Z,0.20
2023-02-25T21:48:47.334Z,0.16
2023-02-25T21:50:48.919Z,0.14
2023-02-25T21:52:51.118Z,0.12
2023-02-25T21:54:53.965Z,0.12
2023-02-25T21:56:55.500Z,0.11
2023-02-25T21:58:59.746Z,0.10
2023-02-25T22:01:11.494Z,0.09
2023-02-25T22:03:12.988Z,0.07
2023-02-25T22:05:15.904Z,0.07
2023-02-25T22:07:17.962Z,0.04
2023-02-25T22:09:19.990Z,0.02
2023-02-25T22:11:31.028Z,0.02
2023-02-25T22:13:34.470Z,-0.01
2023-02-25T22:15:35.986Z,-0.02
2023-02-25T22:17:38.411Z,-0.03
2023-02-25T22:19:39.859Z,-0.08
2023-02-25T22:21:41.372Z,-0.10
2023-02-25T22:23:43.583Z,-0.12
2023-02-25T22:25:45.056Z,-0.13
2023-02-25T22:27:46.567Z,-0.14
2023-02-25T22:29:48.041Z,-0.13
2023-02-25T22:31:49.728Z,-0.15
2023-02-25T22:33:52.452Z,-0.16
2023-02-25T22:36:02.014Z,-0.15
2023-02-25T22:38:03.464Z,-0.17
2023-02-25T22:40:05.486Z,-0.18
2023-02-25T22:42:07.075Z,-0.18
2023-02-25T22:44:08.600Z,-0.20
2023-02-25T22:46:16.556Z,-0.21
2023-02-25T22:48:18.111Z,-0.23
2023-02-25T22:50:19.572Z,-0.24
2023-02-25T22:52:21.050Z,-0.28
2023-02-25T22:54:22.589Z,-0.29
2023-02-25T22:56:24.772Z,-0.33
2023-02-25T22:58:26.416Z,-0.35
2023-02-25T23:00:36.821Z,-0.35
2023-02-25T23:02:38.394Z,-0.36
2023-02-25T23:04:39.912Z,-0.39
2023-02-25T23:06:44.493Z,-0.39
2023-02-25T23:08:47.454Z,-0.41
2023-02-25T23:10:49.404Z,-0.42
2023-02-25T23:12:51.057Z,-0.43
2023-02-25T23:14:52.523Z,-0.45
2023-02-25T23:16:53.971Z,-0.48
2023-02-25T23:19:00.376Z,-0.48
2023-02-25T23:21:05.647Z,-0.50
2023-02-25T23:23:09.435Z,-0.52
2023-02-25T23:25:10.944Z,-0.55
2023-02-25T23:27:12.471Z,-0.55
2023-02-25T23:29:14.058Z,-0.56
2023-02-25T23:31:24.145Z,-0.57
2023-02-25T23:33:26.017Z,-0.59
2023-02-25T23:35:27.502Z,-0.59
2023-02-25T23:37:31.065Z,-0.60
2023-02-25T23:39:32.589Z,-0.62
2023-02-25T23:41:35.838Z,-0.62
2023-02-25T23:43:37.319Z,-0.62
2023-02-25T23:45:38.864Z,-0.62
2023-02-25T23:47:42.822Z,-0.62
2023-02-25T23:49:44.582Z,-0.61
2023-02-25T23:51:47.699Z,-0.61
2023-02-25T23:53:55.614Z,-0.63
2023-02-25T23:55:57.084Z,-0.65
2023-02-25T23:57:58.733Z,-0.65
